Time;durP1;ratioP1;P1;durP2;ratioP2;P2;SDS_P1;SDS_P2;PMS_P1;PMS_P2;Temp;Humidity;BMP_temperature;BMP_pressure;BME280_temperature;BME280_humidity;BME280_pressure;Samples;Min_cycle;Max_cycle;Signal;HPM_P1;HPM_P2
2023/05/23 00:00:35;;;;;;;10.47;4.00;;;;;;;-143.84;76.68;45031.94;5072484;28;20505;-56
2023/05/23 00:03:03;;;;;;;4.40;3.63;;;;;;;-143.84;76.24;45073.81;5072394;28;20445;-56
2023/05/23 00:05:30;;;;;;;3.90;3.40;;;;;;;-143.84;76.45;45052.88;5072732;28;20444;-56
2023/05/23 00:07:57;;;;;;;7.17;3.53;;;;;;;-143.84;76.25;45037.66;5071978;28;20469;-56
2023/05/23 00:10:24;;;;;;;10.03;3.50;;;;;;;-143.84;76.41;45085.25;5072239;28;20500;-56
2023/05/23 00:12:52;;;;;;;5.13;3.97;;;;;;;-143.84;76.28;45035.75;5072511;28;20460;-56
2023/05/23 00:15:21;;;;;;;11.97;3.83;;;;;;;-143.84;75.98;45047.16;5072474;28;20454;-56
2023/05/23 00:17:48;;;;;;;8.30;3.80;;;;;;;-143.84;76.16;45079.53;5072086;28;20449;-56
2023/05/23 00:20:15;;;;;;;6.53;3.90;;;;;;;-143.84;75.75;45047.16;5071783;28;20441;-56
2023/05/23 00:22:42;;;;;;;6.93;3.87;;;;;;;-143.84;75.86;45033.84;5071917;28;20524;-56
2023/05/23 00:25:10;;;;;;;7.47;4.47;;;;;;;-143.84;76.12;45049.06;5072043;28;20437;-56
2023/05/23 00:27:37;;;;;;;8.20;3.70;;;;;;;-143.84;75.93;45050.97;5071686;28;20477;-56
2023/05/23 00:30:05;;;;;;;8.67;3.87;;;;;;;-143.84;75.90;45050.97;5071949;28;20445;-56
2023/05/23 00:32:34;;;;;;;14.97;4.77;;;;;;;-143.84;75.92;45035.75;5072076;28;21188;-56
2023/05/23 00:35:01;;;;;;;5.63;4.20;;;;;;;-143.84;76.00;45047.16;5072102;28;20550;-56
2023/05/23 00:37:28;;;;;;;6.13;3.87;;;;;;;-143.84;76.15;45071.91;5071725;28;20449;-56
2023/05/23 00:39:55;;;;;;;4.57;3.60;;;;;;;-143.84;76.12;45068.13;5071855;28;20988;-56
2023/05/23 00:42:22;;;;;;;18.43;4.97;;;;;;;-143.84;76.15;45035.75;5071433;28;20532;-56
2023/05/23 00:44:49;;;;;;;11.33;4.17;;;;;;;-143.84;75.96;45062.41;5071707;28;20489;-56
2023/05/23 00:47:17;;;;;;;11.80;4.60;;;;;;;-143.84;75.92;45052.88;5071971;28;20440;-56
2023/05/23 00:49:46;;;;;;;7.20;3.80;;;;;;;-143.84;75.87;45012.88;5071421;28;20878;-56
2023/05/23 00:52:15;;;;;;;6.17;4.30;;;;;;;-143.84;75.72;45060.50;5071391;28;20429;-56
2023/05/23 00:54:42;;;;;;;4.90;4.20;;;;;;;-143.84;75.58;45039.53;5071471;28;20469;-56
2023/05/23 00:57:10;;;;;;;11.03;4.20;;;;;;;-143.84;75.36;45037.66;5071430;28;20437;-56
2023/05/23 00:59:38;;;;;;;7.10;3.80;;;;;;;-143.84;75.65;45037.66;5071112;28;20441;-56
2023/05/23 01:02:05;;;;;;;6.30;4.00;;;;;;;-143.84;75.75;45081.44;5071550;28;20559;-56
2023/05/23 01:04:33;;;;;;;7.00;4.23;;;;;;;-143.84;75.46;45064.31;5071379;28;20499;-56
2023/05/23 01:07:02;;;;;;;5.63;4.20;;;;;;;-143.84;75.34;45043.34;5070818;28;20476;-56
2023/05/23 01:09:30;;;;;;;9.53;4.60;;;;;;;-143.84;75.43;45028.13;5071483;28;20433;-56
2023/05/23 01:12:14;;;;;;;4.90;4.37;;;;;;;-143.84;75.45;45049.06;5071102;28;20442;-56
2023/05/23 01:14:47;;;;;;;8.57;4.60;;;;;;;-143.84;75.47;45068.13;5071132;28;20448;-56
2023/05/23 01:17:23;;;;;;;8.20;4.30;;;;;;;-143.84;75.31;45047.16;5070847;28;20436;-56
2023/05/23 01:19:59;;;;;;;6.93;4.33;;;;;;;-143.84;75.38;45041.44;5070938;28;20444;-56
2023/05/23 01:22:41;;;;;;;6.40;4.50;;;;;;;-143.84;75.21;45077.63;5070953;28;20578;-56
2023/05/23 01:25:18;;;;;;;4.53;3.90;;;;;;;-143.84;75.16;45050.97;5070718;28;20518;-56
2023/05/23 01:27:59;;;;;;;5.43;3.60;;;;;;;-143.84;75.52;45064.31;5070649;28;20516;-56
2023/05/23 01:30:28;;;;;;;7.13;4.60;;;;;;;-143.84;75.61;45071.91;5070813;28;20437;-56
2023/05/23 01:32:58;;;;;;;12.30;4.70;;;;;;;-143.84;75.59;45056.69;5070594;28;20507;-56
2023/05/23 01:35:27;;;;;;;7.50;3.93;;;;;;;-143.84;75.50;45066.22;5070676;28;20538;-56
2023/05/23 01:37:54;;;;;;;7.80;4.00;;;;;;;-143.84;75.20;45035.75;5070479;28;20473;-56
2023/05/23 01:40:21;;;;;;;4.73;4.30;;;;;;;-143.84;75.32;45049.06;5070404;28;20438;-56
2023/05/23 01:42:49;;;;;;;6.50;3.63;;;;;;;-143.84;75.25;45071.91;5070610;28;21016;-56
2023/05/23 01:45:18;;;;;;;8.90;4.00;;;;;;;-143.84;75.04;45085.25;5070388;28;20444;-56
2023/05/23 01:47:47;;;;;;;8.97;4.40;;;;;;;-143.84;75.45;45071.91;5070793;28;20436;-56
2023/05/23 01:50:14;;;;;;;7.60;5.10;;;;;;;-143.84;75.75;45054.78;5070944;28;20438;-56
2023/05/23 01:52:42;;;;;;;6.13;4.00;;;;;;;-143.84;75.87;45049.06;5070851;28;20437;-56
2023/05/23 01:55:10;;;;;;;4.67;4.00;;;;;;;-143.84;75.95;45050.97;5070377;28;20495;-56
2023/05/23 01:57:38;;;;;;;8.23;4.90;;;;;;;-143.84;76.08;45049.06;5070280;28;20512;-56
2023/05/23 02:00:09;;;;;;;4.50;3.87;;;;;;;-143.84;76.35;45066.22;5070297;28;20441;-56
2023/05/23 02:02:38;;;;;;;12.60;4.60;;;;;;;-143.84;76.17;45041.44;5070294;28;20538;-56
2023/05/23 02:05:06;;;;;;;10.03;4.07;;;;;;;-143.84;75.92;45052.88;5067422;28;20508;-56
2023/05/23 02:07:33;;;;;;;7.67;5.07;;;;;;;-143.84;76.05;45056.69;5070086;28;20445;-56
2023/05/23 02:10:00;;;;;;;5.47;3.87;;;;;;;-143.84;76.49;45039.53;5070506;28;20819;-56
2023/05/23 02:12:27;;;;;;;7.97;4.10;;;;;;;-143.84;76.63;45033.84;5069968;28;20864;-56
2023/05/23 02:14:55;;;;;;;6.30;4.30;;;;;;;-143.84;76.86;45094.78;5067043;28;20444;-56
2023/05/23 02:17:23;;;;;;;7.63;4.40;;;;;;;-143.84;77.00;45049.06;5069981;28;20820;-56
2023/05/23 02:19:51;;;;;;;10.37;4.57;;;;;;;-143.84;76.97;45049.06;5074102;28;20529;-56
2023/05/23 02:22:22;;;;;;;7.77;4.23;;;;;;;-143.84;76.95;45049.06;5074053;28;20565;-56
2023/05/23 02:24:50;;;;;;;9.40;4.07;;;;;;;-143.84;77.00;45054.78;5074379;28;20507;-56
2023/05/23 02:27:17;;;;;;;10.03;4.33;;;;;;;-143.84;76.96;45037.66;5074637;28;20510;-56
2023/05/23 02:29:44;;;;;;;10.93;4.27;;;;;;;-143.84;77.26;45043.34;5074412;28;20440;-56
2023/05/23 02:32:11;;;;;;;4.33;3.83;;;;;;;-143.84;77.16;45049.06;5074227;28;20966;-56
2023/05/23 02:34:39;;;;;;;5.33;4.07;;;;;;;-143.84;76.97;45049.06;5074598;28;20943;-56
2023/05/23 02:37:07;;;;;;;4.70;4.20;;;;;;;-143.84;77.42;45047.16;5074090;28;20510;-56
2023/05/23 02:39:35;;;;;;;14.73;4.30;;;;;;;-143.84;77.51;45033.84;5073781;28;20951;-55
2023/05/23 02:42:03;;;;;;;7.37;4.30;;;;;;;-143.84;77.87;45070.00;5071116;28;20481;-56
2023/05/23 02:44:30;;;;;;;11.00;4.77;;;;;;;-143.84;78.06;45035.75;5073935;28;20469;-56
2023/05/23 02:46:57;;;;;;;6.00;3.87;;;;;;;-143.84;78.26;45047.16;5073181;28;20833;-56
2023/05/23 02:49:24;;;;;;;8.13;4.60;;;;;;;-143.84;78.42;45037.66;5073436;28;20470;-56
2023/05/23 02:51:51;;;;;;;5.87;3.93;;;;;;;-143.84;78.30;45010.97;5070775;28;20445;-56
2023/05/23 02:54:20;;;;;;;9.00;4.47;;;;;;;-143.84;78.13;45026.22;5073416;28;20538;-56
2023/05/23 02:56:49;;;;;;;8.07;4.57;;;;;;;-143.84;78.29;45005.28;5072917;28;20964;-56
2023/05/23 02:59:16;;;;;;;4.90;4.10;;;;;;;-143.84;78.08;45022.41;5073311;28;20815;-56
2023/05/23 03:01:43;;;;;;;5.73;4.13;;;;;;;-143.84;77.87;45018.59;5073319;28;20465;-55
2023/05/23 03:04:12;;;;;;;6.23;3.77;;;;;;;-143.84;77.74;45033.84;5071855;28;20660;-55
2023/05/23 03:06:40;;;;;;;7.93;4.00;;;;;;;-143.84;77.77;45039.53;5071310;28;20484;-55
2023/05/23 03:09:09;;;;;;;6.93;4.43;;;;;;;-143.84;77.70;45031.94;5071822;28;20448;-55
2023/05/23 03:11:37;;;;;;;7.33;4.00;;;;;;;-143.84;77.58;45049.06;5071674;28;20433;-55
2023/05/23 03:14:04;;;;;;;4.30;3.90;;;;;;;-143.84;77.35;45045.25;5071970;28;20996;-55
2023/05/23 03:16:31;;;;;;;23.60;4.97;;;;;;;-143.84;77.10;45043.34;5071560;28;20449;-55
2023/05/23 03:18:59;;;;;;;5.10;4.53;;;;;;;-143.84;77.40;45037.66;5071406;28;20480;-55
2023/05/23 03:21:26;;;;;;;20.63;4.50;;;;;;;-143.84;77.14;45022.41;5071400;28;20460;-55
2023/05/23 03:23:53;;;;;;;10.17;4.90;;;;;;;-143.84;77.09;45056.69;5071444;28;20871;-55
2023/05/23 03:26:20;;;;;;;7.63;4.80;;;;;;;-143.84;77.36;45054.78;5071435;28;20465;-55
2023/05/23 03:28:49;;;;;;;9.17;4.00;;;;;;;-143.84;77.30;45016.69;5071086;28;20473;-55
2023/05/23 03:31:17;;;;;;;8.67;4.23;;;;;;;-143.84;76.80;45039.53;5071481;28;20441;-55
2023/05/23 03:33:44;;;;;;;7.07;4.27;;;;;;;-143.84;76.80;45068.13;5071885;28;20546;-55
2023/05/23 03:36:11;;;;;;;4.70;4.20;;;;;;;-143.84;76.54;45045.25;5076195;28;20949;-55
2023/05/23 03:38:38;;;;;;;6.40;5.10;;;;;;;-143.84;76.32;45054.78;5078468;28;20858;-57
2023/05/23 03:41:05;;;;;;;9.30;4.13;;;;;;;-143.84;76.11;45045.25;5071372;28;20483;-55
2023/05/23 03:43:32;;;;;;;8.00;4.33;;;;;;;-143.84;76.23;45050.97;5071600;28;20586;-55
2023/05/23 03:46:00;;;;;;;9.07;4.50;;;;;;;-143.84;76.55;45064.31;5071505;28;20442;-55
2023/05/23 03:48:29;;;;;;;4.60;4.20;;;;;;;-143.84;76.86;45062.41;5071568;28;20438;-55
2023/05/23 03:50:56;;;;;;;6.13;4.03;;;;;;;-143.84;76.65;45043.34;5070960;28;20447;-55
2023/05/23 03:53:23;;;;;;;10.43;4.87;;;;;;;-143.84;76.56;45068.13;5071363;28;20491;-56
2023/05/23 03:55:52;;;;;;;7.70;4.57;;;;;;;-143.84;76.25;45079.53;5071240;28;20469;-55
2023/05/23 03:58:19;;;;;;;5.33;4.70;;;;;;;-143.84;76.29;45070.00;5071283;28;20491;-55
2023/05/23 04:00:47;;;;;;;4.87;4.40;;;;;;;-143.84;76.39;45054.78;5071242;28;20450;-55
2023/05/23 04:03:16;;;;;;;4.50;4.10;;;;;;;-143.84;76.38;45056.69;5070219;28;20473;-55
2023/05/23 04:05:43;;;;;;;5.73;4.17;;;;;;;-143.84;76.26;45075.72;5069782;28;20449;-55
2023/05/23 04:08:10;;;;;;;6.80;4.07;;;;;;;-143.84;76.38;45062.41;5069534;28;20449;-55
2023/05/23 04:10:37;;;;;;;9.60;4.30;;;;;;;-143.84;76.24;45041.44;5069645;28;20516;-55
2023/05/23 04:13:05;;;;;;;5.67;4.67;;;;;;;-143.84;76.12;45030.03;5069465;28;20441;-55
2023/05/23 04:15:33;;;;;;;6.87;4.20;;;;;;;-143.84;75.90;45073.81;5069476;28;20523;-55
2023/05/23 04:18:00;;;;;;;7.17;4.83;;;;;;;-143.84;75.75;45039.53;5069786;28;20525;-55
2023/05/23 04:20:29;;;;;;;13.63;5.20;;;;;;;-143.84;75.37;45047.16;5070739;28;20438;-55
2023/05/23 04:22:56;;;;;;;7.30;4.63;;;;;;;-143.84;75.50;45064.31;5070568;28;20973;-56
2023/05/23 04:25:23;;;;;;;10.27;4.60;;;;;;;-143.84;75.89;45037.66;5070533;28;20473;-55
2023/05/23 04:27:50;;;;;;;8.63;5.30;;;;;;;-143.84;75.71;45049.06;5070409;28;20835;-55
2023/05/23 04:30:17;;;;;;;6.50;4.60;;;;;;;-143.84;75.68;45037.66;5070642;28;20499;-55
2023/05/23 04:32:44;;;;;;;7.00;5.47;;;;;;;-143.84;75.95;45018.59;5070249;28;20915;-55
2023/05/23 04:35:11;;;;;;;5.20;4.70;;;;;;;-143.84;75.72;45066.22;5070106;28;20437;-55
2023/05/23 04:37:41;;;;;;;7.47;4.20;;;;;;;-143.84;75.98;45047.16;5070247;28;20445;-55
2023/05/23 04:40:09;;;;;;;5.37;4.03;;;;;;;-143.84;76.16;45081.44;5069961;28;20446;-55
2023/05/23 04:42:36;;;;;;;4.53;4.23;;;;;;;-143.84;76.58;45020.50;5069828;28;20505;-55
2023/05/23 04:45:03;;;;;;;5.17;4.70;;;;;;;-143.84;76.23;45047.16;5070646;28;20437;-55
2023/05/23 04:47:33;;;;;;;9.80;5.27;;;;;;;-143.84;76.19;45043.34;5069877;28;20456;-55
2023/05/23 04:50:01;;;;;;;5.63;4.83;;;;;;;-143.84;75.92;45039.53;5070089;28;20446;-55
2023/05/23 04:52:32;;;;;;;6.87;5.10;;;;;;;-143.84;75.96;45060.50;5070104;28;20499;-55
2023/05/23 04:55:00;;;;;;;7.67;4.57;;;;;;;-143.84;75.83;45079.53;5070064;28;20520;-55
2023/05/23 04:57:27;;;;;;;7.90;4.40;;;;;;;-143.84;75.67;45052.88;5070354;28;20449;-55
2023/05/23 04:59:55;;;;;;;10.47;4.60;;;;;;;-143.84;75.41;45045.25;5070526;28;20454;-55
2023/05/23 05:02:22;;;;;;;9.73;4.37;;;;;;;-143.84;75.37;45066.22;5070042;28;20831;-55
2023/05/23 05:04:50;;;;;;;6.13;4.27;;;;;;;-143.84;75.12;45031.94;5070119;28;20515;-55
2023/05/23 05:07:17;;;;;;;4.97;4.47;;;;;;;-143.84;75.26;45031.94;5070185;28;20583;-56
2023/05/23 05:09:44;;;;;;;9.03;4.30;;;;;;;-143.84;75.50;45047.16;5070035;28;21323;-55
2023/05/23 05:12:12;;;;;;;12.57;4.70;;;;;;;-143.84;74.73;45045.25;5070036;28;20445;-55
2023/05/23 05:14:39;;;;;;;10.53;4.60;;;;;;;-143.84;74.41;45052.88;5069878;28;20959;-55
2023/05/23 05:17:06;;;;;;;4.43;4.03;;;;;;;-143.84;73.76;45045.25;5069757;28;20532;-55
2023/05/23 05:19:34;;;;;;;6.30;4.60;;;;;;;-143.84;73.59;45045.25;5069882;28;20441;-55
2023/05/23 05:22:01;;;;;;;9.83;4.30;;;;;;;-143.84;73.04;45052.88;5069347;28;20499;-55
2023/05/23 05:24:28;;;;;;;7.40;4.40;;;;;;;-143.84;72.85;45050.97;5069904;28;20468;-55
2023/05/23 05:26:56;;;;;;;5.90;3.70;;;;;;;-143.84;72.11;45071.91;5069520;28;20484;-55
2023/05/23 05:29:24;;;;;;;4.17;3.77;;;;;;;-143.84;71.62;45090.97;5069227;28;20550;-56
2023/05/23 05:31:52;;;;;;;17.23;4.23;;;;;;;-143.84;70.89;45073.81;5069285;28;20474;-56
2023/05/23 05:34:19;;;;;;;8.33;3.90;;;;;;;-143.84;70.17;45087.16;5069399;28;20438;-56
2023/05/23 05:36:47;;;;;;;9.40;3.70;;;;;;;-143.84;69.75;45071.91;5069658;28;20472;-56
2023/05/23 05:39:14;;;;;;;7.40;4.33;;;;;;;-143.84;69.46;45075.72;5069555;28;20465;-55
2023/05/23 05:41:41;;;;;;;16.43;4.40;;;;;;;-143.84;68.79;45079.53;5069406;28;20463;-56
2023/05/23 05:44:08;;;;;;;7.57;4.20;;;;;;;-143.84;67.95;45060.50;5069213;28;20577;-56
2023/05/23 05:46:37;;;;;;;6.57;4.00;;;;;;;-143.84;66.85;45052.88;5069146;28;20451;-56
2023/05/23 05:49:04;;;;;;;5.60;4.67;;;;;;;-143.84;66.58;45058.59;5069100;28;20889;-56
2023/05/23 05:51:31;;;;;;;9.20;4.20;;;;;;;-143.84;66.34;45058.59;5069478;28;20435;-56
2023/05/23 05:53:58;;;;;;;7.80;4.40;;;;;;;-143.84;65.86;45081.44;5068965;28;20448;-56
2023/05/23 05:56:26;;;;;;;11.93;3.83;;;;;;;-143.84;65.93;45037.66;5069023;28;20501;-56
2023/05/23 05:58:54;;;;;;;4.40;3.80;;;;;;;-143.84;65.40;45041.44;5068980;28;20442;-56
2023/05/23 06:01:21;;;;;;;6.33;4.07;;;;;;;-143.84;64.98;45041.44;5068715;28;20483;-56
2023/05/23 06:03:49;;;;;;;5.87;4.50;;;;;;;-143.84;64.11;45071.91;5068633;28;21012;-56
2023/05/23 06:06:16;;;;;;;10.73;4.30;;;;;;;-143.84;64.62;45050.97;5069263;28;20770;-56
2023/05/23 06:08:44;;;;;;;8.00;4.50;;;;;;;-143.84;64.88;45058.59;5068988;28;20970;-56
2023/05/23 06:11:11;;;;;;;4.40;4.10;;;;;;;-143.84;65.25;45047.16;5069055;28;20435;-56
2023/05/23 06:13:38;;;;;;;11.10;4.27;;;;;;;-143.84;64.95;45054.78;5068979;28;20436;-56
2023/05/23 06:16:06;;;;;;;7.23;4.03;;;;;;;-143.84;64.39;45064.31;5068580;28;20982;-56
2023/05/23 06:18:33;;;;;;;10.00;4.00;;;;;;;-143.84;63.28;45049.06;5069044;28;20439;-56
2023/05/23 06:21:01;;;;;;;12.13;3.90;;;;;;;-143.84;62.92;45035.75;5069021;28;20511;-55
2023/05/23 06:23:29;;;;;;;5.33;4.00;;;;;;;-143.84;61.84;45039.53;5068896;28;20526;-55
2023/05/23 06:25:56;;;;;;;12.53;4.47;;;;;;;-143.84;60.87;45043.34;5068844;28;20441;-56
2023/05/23 06:28:23;;;;;;;5.87;4.53;;;;;;;-143.84;59.83;45037.66;5068619;28;20539;-56
2023/05/23 06:30:50;;;;;;;15.13;4.03;;;;;;;-143.84;59.69;45047.16;5068806;28;20444;-56
2023/05/23 06:33:17;;;;;;;11.00;4.00;;;;;;;-143.84;60.41;45045.25;5068722;28;20809;-56
2023/05/23 06:35:44;;;;;;;7.83;4.30;;;;;;;-143.84;60.38;45049.06;5068566;28;20429;-56
2023/05/23 06:38:13;;;;;;;9.00;3.90;;;;;;;-143.84;61.29;45064.31;5068509;28;20457;-55
2023/05/23 06:40:40;;;;;;;9.20;4.97;;;;;;;-143.84;60.96;45054.78;5069005;28;20496;-56
2023/05/23 06:43:07;;;;;;;11.97;4.10;;;;;;;-143.84;61.46;45026.22;5068507;28;20477;-56
2023/05/23 06:45:34;;;;;;;7.00;4.30;;;;;;;-143.84;62.66;45064.31;5068706;28;21009;-55
2023/05/23 06:48:02;;;;;;;11.30;4.40;;;;;;;-143.84;63.17;45045.25;5068521;28;21021;-55
2023/05/23 06:50:29;;;;;;;9.63;4.47;;;;;;;-143.84;63.55;45045.25;5068410;28;20449;-56
2023/05/23 06:52:56;;;;;;;4.83;4.43;;;;;;;-143.84;64.54;45064.31;5068321;28;20429;-56
2023/05/23 06:55:25;;;;;;;8.33;4.07;;;;;;;-143.84;64.42;45033.84;5068419;28;20441;-56
2023/05/23 06:57:52;;;;;;;9.90;4.30;;;;;;;-143.84;64.54;45056.69;5068519;28;20437;-56
2023/05/23 07:00:20;;;;;;;4.57;4.17;;;;;;;-143.84;64.93;45049.06;5068365;28;20470;-56
2023/05/23 07:02:48;;;;;;;14.87;4.70;;;;;;;-143.84;64.70;45043.34;5068318;28;20538;-56
2023/05/23 07:05:16;;;;;;;5.13;3.60;;;;;;;-143.84;64.95;45056.69;5071293;28;21032;-56
2023/05/23 07:07:43;;;;;;;9.57;4.63;;;;;;;-143.84;64.84;45020.50;5072011;28;20437;-56
2023/05/23 07:10:11;;;;;;;10.07;4.37;;;;;;;-143.84;65.83;45043.34;5072169;28;20489;-55
2023/05/23 07:12:39;;;;;;;10.33;4.70;;;;;;;-143.84;68.00;45030.03;5072021;28;20455;-56
2023/05/23 07:15:07;;;;;;;11.30;5.63;;;;;;;-143.84;68.43;45041.44;5072357;28;20448;-56
2023/05/23 07:17:35;;;;;;;10.57;4.57;;;;;;;-143.84;69.77;45022.41;5070414;28;20448;-56
2023/05/23 07:20:03;;;;;;;8.33;5.00;;;;;;;-143.84;70.25;45045.25;5071990;28;20448;-56
2023/05/23 07:22:30;;;;;;;18.43;6.20;;;;;;;-143.84;70.96;45020.50;5071758;28;21209;-56
2023/05/23 07:24:57;;;;;;;5.37;4.87;;;;;;;-143.84;70.74;45047.16;5071753;28;20484;-56
2023/05/23 07:27:24;;;;;;;20.57;4.33;;;;;;;-143.84;70.73;45031.94;5071591;28;20857;-56
2023/05/23 07:29:53;;;;;;;5.57;4.70;;;;;;;-143.84;69.92;45035.75;5071913;28;20442;-55
2023/05/23 07:32:20;;;;;;;12.60;4.83;;;;;;;-143.84;70.75;45024.31;5071853;28;20816;-55
2023/05/23 07:34:47;;;;;;;6.83;4.40;;;;;;;-143.84;70.05;45030.03;5071523;28;20437;-56
2023/05/23 07:37:14;;;;;;;8.50;5.43;;;;;;;-143.84;69.71;45007.19;5071378;28;20446;-56
2023/05/23 07:39:42;;;;;;;7.00;4.63;;;;;;;-143.84;70.17;45022.41;5071514;28;20497;-56
2023/05/23 07:42:09;;;;;;;11.40;4.60;;;;;;;-143.84;70.50;45014.78;5071243;28;20503;-56
2023/05/23 07:44:37;;;;;;;4.90;4.20;;;;;;;-143.84;70.38;45020.50;5071412;28;20526;-55
2023/05/23 07:47:05;;;;;;;11.20;4.70;;;;;;;-143.84;69.51;45016.69;5071568;28;20464;-55
2023/05/23 07:49:33;;;;;;;8.40;4.53;;;;;;;-143.84;68.46;45024.31;5071316;28;20449;-56
2023/05/23 07:52:00;;;;;;;10.60;4.13;;;;;;;-143.84;67.36;45039.53;5071237;28;20457;-56
2023/05/23 07:54:27;;;;;;;8.30;4.90;;;;;;;-143.84;64.13;45066.22;5071175;28;20538;-56
2023/05/23 07:56:54;;;;;;;8.50;4.50;;;;;;;-143.84;65.58;45033.84;5071039;28;20449;-56
2023/05/23 07:59:22;;;;;;;12.63;4.57;;;;;;;-143.84;65.25;45054.78;5071103;28;20446;-56
2023/05/23 08:01:50;;;;;;;8.63;4.10;;;;;;;-143.84;64.47;45047.16;5071175;28;20472;-56
2023/05/23 08:04:19;;;;;;;9.67;4.73;;;;;;;-143.84;61.64;45062.41;5070918;28;20495;-56
2023/05/23 08:06:47;;;;;;;7.80;4.30;;;;;;;-143.84;61.54;45014.78;5070856;28;20450;-56
2023/05/23 08:09:14;;;;;;;9.57;4.43;;;;;;;-143.84;62.25;45033.84;5071110;28;20832;-56
2023/05/23 08:11:42;;;;;;;5.00;4.03;;;;;;;-143.84;61.61;45014.78;5070681;28;20453;-56
2023/05/23 08:14:09;;;;;;;11.13;3.87;;;;;;;-143.84;62.32;45050.97;5071000;28;20448;-56
2023/05/23 08:16:36;;;;;;;6.73;4.47;;;;;;;-143.84;60.55;45033.84;5069614;28;20519;-56
2023/05/23 08:19:03;;;;;;;4.77;3.47;;;;;;;-143.84;60.13;45028.13;5070767;28;20442;-56
2023/05/23 08:21:32;;;;;;;11.30;3.80;;;;;;;-143.84;61.21;45010.97;5070812;28;20441;-56
2023/05/23 08:59:30;;;;;;;8.23;5.20;;;;;;;-143.84;61.57;45052.88;5068939;27;1785836;-56
2023/05/23 09:01:58;;;;;;;16.27;6.20;;;;;;;-143.84;65.65;45018.59;5106360;28;20292;-56
2023/05/23 09:04:25;;;;;;;9.57;6.07;;;;;;;-143.84;64.91;45033.84;5106690;28;20493;-56
2023/05/23 09:06:54;;;;;;;10.97;5.77;;;;;;;-143.84;64.11;45010.97;5106443;28;20516;-56
2023/05/23 09:09:21;;;;;;;8.07;6.20;;;;;;;-143.84;64.31;45010.97;5105167;28;20500;-56
2023/05/23 09:11:48;;;;;;;8.60;5.47;;;;;;;-143.84;62.69;45030.03;5106056;28;20469;-56
2023/05/23 09:14:16;;;;;;;13.70;6.27;;;;;;;-143.84;62.60;45003.38;5106651;28;20438;-56
2023/05/23 09:16:48;;;;;;;6.97;5.00;;;;;;;-143.84;63.03;45039.53;5106448;28;20446;-56
2023/05/23 09:19:16;;;;;;;12.00;6.10;;;;;;;-143.84;61.80;45018.59;5106436;28;20511;-56
2023/05/23 09:21:44;;;;;;;11.30;5.53;;;;;;;-143.84;60.78;45031.94;5106411;28;20445;-56
2023/05/23 09:24:11;;;;;;;14.20;6.10;;;;;;;-143.84;59.62;45022.41;5106422;28;20577;-56
2023/05/23 09:26:38;;;;;;;8.87;6.53;;;;;;;-143.84;59.67;45031.94;5105847;28;20490;-56
2023/05/23 09:29:06;;;;;;;13.40;6.10;;;;;;;-143.84;62.77;45026.22;5105883;28;20457;-56
2023/05/23 09:31:33;;;;;;;9.67;5.60;;;;;;;-143.84;60.58;45001.47;5106085;28;20442;-56
2023/05/23 09:34:02;;;;;;;12.03;6.10;;;;;;;-143.84;61.06;45018.59;5106049;28;20995;-56
2023/05/23 09:36:31;;;;;;;10.13;6.03;;;;;;;-143.84;62.74;45033.84;5105802;28;20447;-56
2023/05/23 09:39:02;;;;;;;13.27;5.57;;;;;;;-143.84;63.55;45026.22;5106027;28;20482;-56
2023/05/23 09:41:31;;;;;;;11.23;6.57;;;;;;;-143.84;64.21;45003.38;5106064;28;20443;-56
2023/05/23 09:44:00;;;;;;;6.37;5.40;;;;;;;-143.84;62.98;45022.41;5105923;28;20431;-56
2023/05/23 09:46:29;;;;;;;8.93;5.80;;;;;;;-143.84;63.88;45012.88;5105961;28;20436;-56
2023/05/23 09:48:59;;;;;;;8.17;5.80;;;;;;;-143.84;62.79;45049.06;5105837;28;20830;-56
2023/05/23 09:51:27;;;;;;;13.43;5.50;;;;;;;-143.84;63.10;45024.31;5105711;28;20443;-57
2023/05/23 09:53:55;;;;;;;8.30;5.40;;;;;;;-143.84;62.97;45022.41;5106101;28;20440;-56
2023/05/23 09:56:25;;;;;;;9.43;5.43;;;;;;;-143.84;63.13;45024.31;5105947;28;21094;-56
2023/05/23 09:58:55;;;;;;;8.13;6.07;;;;;;;-143.84;63.21;45037.66;5105250;28;20552;-56
2023/05/23 10:01:24;;;;;;;11.53;5.53;;;;;;;-143.84;64.00;45047.16;5105511;28;20507;-56
2023/05/23 10:03:56;;;;;;;12.33;6.13;;;;;;;-143.84;64.68;45077.63;5105533;28;20436;-56
2023/05/23 10:06:29;;;;;;;6.07;5.47;;;;;;;-143.84;66.36;45035.75;5105458;28;20440;-56
2023/05/23 10:09:01;;;;;;;6.43;5.70;;;;;;;-143.84;67.53;45037.66;5102342;28;20448;-56
2023/05/23 10:12:12;;;;;;;9.20;6.87;;;;;;;-143.84;68.70;45045.25;5092058;28;20831;-56
2023/05/23 10:14:45;;;;;;;15.13;7.03;;;;;;;-143.84;70.62;45033.84;5075872;28;20445;-56
2023/05/23 10:17:19;;;;;;;12.90;6.97;;;;;;;-143.84;70.87;45039.53;5091674;28;20501;-56
2023/05/23 10:19:53;;;;;;;11.80;7.10;;;;;;;-143.84;71.43;45026.22;5091781;28;20490;-56
2023/05/23 10:22:24;;;;;;;9.67;6.27;;;;;;;-143.84;70.88;45066.22;5091481;28;20442;-56
2023/05/23 10:24:53;;;;;;;17.13;7.00;;;;;;;-143.84;71.79;45050.97;5091849;28;20542;-56
2023/05/23 10:27:20;;;;;;;15.03;6.97;;;;;;;-143.84;72.19;45020.50;5093290;28;20465;-56
2023/05/23 10:29:48;;;;;;;7.67;6.07;;;;;;;-143.84;72.56;45062.41;5091505;28;20520;-57
2023/05/23 10:32:16;;;;;;;9.83;6.40;;;;;;;-143.84;73.90;45035.75;5105436;28;20449;-56
2023/05/23 10:34:54;;;;;;;13.63;6.90;;;;;;;-143.84;74.58;45026.22;5099023;28;20436;-57
2023/05/23 10:37:27;;;;;;;10.40;7.10;;;;;;;-143.84;74.58;45035.75;5102179;28;20442;-56
2023/05/23 10:40:02;;;;;;;9.33;7.07;;;;;;;-143.84;74.64;45031.94;5106888;28;20907;-56
2023/05/23 10:42:42;;;;;;;11.63;6.63;;;;;;;-143.84;75.03;45028.13;5112692;28;20874;-57
2023/05/23 10:45:16;;;;;;;13.70;6.57;;;;;;;-143.84;75.67;45030.03;5108202;28;20446;-56
2023/05/23 10:47:44;;;;;;;18.43;7.67;;;;;;;-143.84;76.80;45014.78;5103293;28;20557;-56
2023/05/23 10:50:13;;;;;;;11.90;6.10;;;;;;;-143.84;78.14;45016.69;5100061;28;20518;-56
2023/05/23 10:52:43;;;;;;;14.87;7.40;;;;;;;-143.84;79.70;44990.03;5091280;28;20474;-56
2023/05/23 10:55:16;;;;;;;36.93;9.37;;;;;;;-143.84;79.48;44972.91;5091878;28;20450;-56
2023/05/23 10:57:44;;;;;;;23.93;7.80;;;;;;;-143.84;80.09;44971.00;5107478;28;20459;-56
2023/05/23 11:00:15;;;;;;;15.63;7.67;;;;;;;-143.84;80.69;44959.56;5111056;28;20458;-56
2023/05/23 11:02:55;;;;;;;10.63;7.90;;;;;;;-143.84;81.57;44898.66;5112395;28;20530;-56
2023/05/23 11:05:23;;;;;;;16.87;7.83;;;;;;;-143.84;82.01;44856.75;5111710;28;20456;-56
2023/05/23 11:08:10;;;;;;;11.93;8.17;;;;;;;-143.84;82.77;44797.72;5109976;28;20464;-56
2023/05/23 11:10:54;;;;;;;11.10;7.63;;;;;;;-143.84;82.75;44805.34;5104816;28;20874;-56
2023/05/23 11:13:23;;;;;;;9.47;7.00;;;;;;;-143.84;81.53;44864.38;5101360;28;20514;-56
2023/05/23 11:15:50;;;;;;;10.70;6.80;;;;;;;-143.84;80.43;44919.59;5100304;28;20440;-56
2023/05/23 11:18:22;;;;;;;14.03;8.60;;;;;;;-143.84;78.96;44991.94;5103368;28;20576;-56
2023/05/23 11:20:52;;;;;;;12.60;7.90;;;;;;;-143.84;79.68;44940.53;5099611;28;21836;-56
2023/05/23 11:23:21;;;;;;;17.23;9.00;;;;;;;-143.84;80.59;44898.66;5090961;28;20546;-56
2023/05/23 11:25:50;;;;;;;9.80;8.17;;;;;;;-143.84;80.37;44902.44;5089994;28;20520;-56
2023/05/23 11:28:18;;;;;;;10.53;8.50;;;;;;;-143.84;79.79;44944.34;5092972;28;20443;-56
2023/05/23 11:30:48;;;;;;;17.20;11.47;;;;;;;-143.84;79.87;44921.50;5098845;28;20461;-56
2023/05/23 11:33:17;;;;;;;20.30;12.30;;;;;;;-143.84;78.80;44974.81;5098675;28;20428;-56
2023/05/23 11:35:47;;;;;;;11.97;9.40;;;;;;;-143.84;78.99;44965.28;5098786;28;20439;-56
2023/05/23 11:38:15;;;;;;;21.13;10.27;;;;;;;-143.84;79.88;44923.41;5100327;28;20508;-56
2023/05/23 11:40:46;;;;;;;15.13;8.70;;;;;;;-143.84;78.65;44982.41;5099174;28;20941;-56
2023/05/23 11:43:15;;;;;;;10.97;6.90;;;;;;;-143.84;78.30;44971.00;5098022;28;20440;-56
2023/05/23 11:45:45;;;;;;;16.23;6.80;;;;;;;-143.84;77.06;44986.22;5100770;28;21006;-56
2023/05/23 11:48:13;;;;;;;7.70;6.43;;;;;;;-143.84;75.69;44986.22;5097878;28;20445;-56
2023/05/23 11:50:45;;;;;;;10.90;7.47;;;;;;;-143.84;76.06;44988.13;5091842;28;20441;-56
2023/05/23 11:53:12;;;;;;;14.50;7.10;;;;;;;-143.84;75.02;44990.03;5090052;28;20802;-56
2023/05/23 11:55:40;;;;;;;15.30;6.30;;;;;;;-143.84;72.57;45033.84;5089929;28;20517;-56